createdAt,value
2022-08-07T00:00:31.159Z,11.23
2022-08-07T00:02:57.627Z,11.16
2022-08-07T00:05:24.990Z,11.11
2022-08-07T00:07:59.810Z,10.91
2022-08-07T00:10:30.411Z,10.85
2022-08-07T00:13:00.748Z,10.86
2022-08-07T00:15:38.015Z,10.90
2022-08-07T00:18:19.378Z,10.88
2022-08-07T00:20:47.721Z,10.83
2022-08-07T00:23:14.221Z,10.77
2022-08-07T00:25:41.583Z,10.84
2022-08-07T00:28:08.482Z,10.93
2022-08-07T00:30:37.127Z,10.79
2022-08-07T00:33:03.539Z,10.55
2022-08-07T00:35:30.395Z,10.53
2022-08-07T00:37:58.748Z,10.56
2022-08-07T00:40:39.488Z,10.59
2022-08-07T00:43:10.016Z,10.57
2022-08-07T00:45:40.882Z,10.56
2022-08-07T00:48:18.543Z,10.50
2022-08-07T00:50:51.813Z,10.47
2022-08-07T00:53:20.299Z,10.37
2022-08-07T00:56:00.409Z,10.32
2022-08-07T00:58:29.965Z,10.26
2022-08-07T01:00:56.353Z,10.33
2022-08-07T01:03:54.503Z,10.37
2022-08-07T01:06:09.822Z,10.48
2022-08-07T01:08:51.426Z,10.49
2022-08-07T01:12:27.377Z,10.44
2022-08-07T01:14:07.846Z,10.39
2022-08-07T01:16:36.026Z,10.47
2022-08-07T01:19:04.602Z,10.40
2022-08-07T01:21:41.252Z,10.41
2022-08-07T01:24:09.159Z,10.46
2022-08-07T01:26:36.661Z,10.31
2022-08-07T01:29:05.147Z,10.18
2022-08-07T01:31:41.787Z,10.08
2022-08-07T01:34:09.365Z,9.98
2022-08-07T01:36:40.403Z,10.03
2022-08-07T01:39:09.982Z,10.08
2022-08-07T01:41:37.661Z,10.09
2022-08-07T01:44:05.949Z,10.07
2022-08-07T01:46:32.446Z,10.09
2022-08-07T01:48:59.860Z,10.11
2022-08-07T01:52:01.663Z,10.10
2022-08-07T01:54:32.459Z,10.03
2022-08-07T01:57:06.860Z,10.06
2022-08-07T01:59:44.087Z,10.02
2022-08-07T02:03:05.606Z,9.90
2022-08-07T02:05:07.449Z,9.80
2022-08-07T02:07:50.057Z,9.76
2022-08-07T02:10:21.672Z,9.71
2022-08-07T02:12:51.086Z,9.78
2022-08-07T02:15:23.189Z,9.77
2022-08-07T02:17:54.919Z,9.80
2022-08-07T02:20:24.538Z,9.84
2022-08-07T02:22:59.900Z,9.89
2022-08-07T02:26:10.187Z,9.92
2022-08-07T02:28:25.330Z,9.86
2022-08-07T02:30:53.647Z,9.88
2022-08-07T02:33:20.566Z,9.84
2022-08-07T02:36:30.296Z,9.95
2022-08-07T02:38:38.248Z,9.95
2022-08-07T02:41:05.224Z,9.99
2022-08-07T02:43:39.603Z,10.04
2022-08-07T02:46:08.342Z,9.87
2022-08-07T02:48:35.007Z,9.84
2022-08-07T02:51:07.083Z,9.80
2022-08-07T02:53:55.733Z,9.79
2022-08-07T02:56:23.263Z,9.87
2022-08-07T02:58:55.369Z,9.87
2022-08-07T03:01:35.126Z,9.85
2022-08-07T03:04:03.211Z,9.77
2022-08-07T03:06:35.143Z,9.70
2022-08-07T03:09:03.550Z,9.64
2022-08-07T03:11:33.000Z,9.46
2022-08-07T03:14:06.134Z,9.51
2022-08-07T03:16:33.927Z,9.45
2022-08-07T03:19:00.403Z,9.40
2022-08-07T03:21:28.483Z,9.28
2022-08-07T03:24:20.967Z,9.30
2022-08-07T03:26:51.289Z,9.31
2022-08-07T03:29:29.218Z,9.29
2022-08-07T03:31:56.804Z,9.31
2022-08-07T03:34:27.276Z,9.22
2022-08-07T03:36:54.824Z,9.21
2022-08-07T03:39:56.506Z,9.26
2022-08-07T03:42:12.504Z,9.27
2022-08-07T03:44:39.857Z,9.29
2022-08-07T03:47:13.124Z,9.37
2022-08-07T03:49:42.475Z,9.33
2022-08-07T03:52:22.657Z,9.41
2022-08-07T03:54:54.861Z,9.40
2022-08-07T03:58:35.020Z,9.44
2022-08-07T04:00:14.736Z,9.35
2022-08-07T04:02:41.510Z,9.33
2022-08-07T04:05:09.110Z,9.32
2022-08-07T04:07:42.444Z,9.35
2022-08-07T04:10:15.423Z,9.31
2022-08-07T04:12:42.286Z,9.31
2022-08-07T04:15:10.158Z,9.33
2022-08-07T04:18:31.335Z,9.31
2022-08-07T04:20:25.398Z,9.32
2022-08-07T04:22:53.634Z,9.34
2022-08-07T04:25:29.300Z,9.43
2022-08-07T04:27:59.302Z,9.41
2022-08-07T04:30:39.285Z,9.44
2022-08-07T04:33:15.679Z,9.47
2022-08-07T04:35:50.577Z,9.53
2022-08-07T04:38:18.616Z,9.66
2022-08-07T04:40:51.844Z,9.80
2022-08-07T04:44:11.301Z,9.79
2022-08-07T04:46:35.955Z,9.89
2022-08-07T04:50:12.117Z,9.96
2022-08-07T04:53:03.002Z,10.01
2022-08-07T04:58:24.300Z,10.16
2022-08-07T04:58:49.683Z,10.25
2022-08-07T05:01:30.198Z,10.36
2022-08-07T05:04:21.555Z,10.45
2022-08-07T05:07:01.126Z,10.58
2022-08-07T05:10:11.048Z,10.75
2022-08-07T05:12:53.056Z,10.90
2022-08-07T05:15:26.894Z,10.91
2022-08-07T05:18:08.747Z,10.93
2022-08-07T05:20:50.226Z,10.98
2022-08-07T05:23:29.108Z,11.12
2022-08-07T05:26:13.027Z,11.24
2022-08-07T05:28:48.597Z,11.33
2022-08-07T05:31:20.093Z,11.42
2022-08-07T05:34:01.132Z,11.57
2022-08-07T05:36:32.354Z,11.76
2022-08-07T05:40:06.792Z,12.01
2022-08-07T05:42:01.651Z,12.23
2022-08-07T05:44:33.537Z,12.42
2022-08-07T05:47:01.612Z,12.58
2022-08-07T05:49:46.603Z,12.63
2022-08-07T05:52:13.243Z,12.78
2022-08-07T05:54:53.546Z,12.95
2022-08-07T05:57:26.725Z,13.27
2022-08-07T05:59:59.076Z,13.54
2022-08-07T06:02:29.587Z,13.79
2022-08-07T06:05:01.903Z,14.10
2022-08-07T06:08:05.322Z,14.87
2022-08-07T06:10:17.408Z,15.52
2022-08-07T06:12:45.441Z,16.06
2022-08-07T06:15:16.260Z,16.72
2022-08-07T06:17:53.635Z,17.58
2022-08-07T06:20:25.216Z,18.28
2022-08-07T06:23:02.251Z,18.72
2022-08-07T06:25:40.747Z,19.02
2022-08-07T06:28:27.946Z,19.33
2022-08-07T06:30:55.859Z,19.63
2022-08-07T06:33:22.899Z,19.95
2022-08-07T06:36:12.179Z,19.89
2022-08-07T06:38:36.218Z,20.25
2022-08-07T06:41:09.761Z,20.65
2022-08-07T06:43:46.372Z,20.66
2022-08-07T06:46:14.267Z,20.55
2022-08-07T06:48:42.044Z,20.11
2022-08-07T06:51:15.530Z,19.53
2022-08-07T06:55:28.865Z,18.88
2022-08-07T06:56:48.641Z,18.31
2022-08-07T07:00:17.647Z,17.97
2022-08-07T07:02:49.097Z,17.44
2022-08-07T07:05:04.435Z,17.53
2022-08-07T07:07:59.471Z,17.41
2022-08-07T07:10:32.943Z,17.47
2022-08-07T07:13:55.959Z,17.48
2022-08-07T07:16:11.138Z,17.92
2022-08-07T07:18:48.887Z,17.90
2022-08-07T07:21:19.536Z,17.78
2022-08-07T07:24:08.528Z,17.77
2022-08-07T07:26:37.768Z,17.83
2022-08-07T07:29:38.580Z,17.99
2022-08-07T07:32:02.305Z,18.18
2022-08-07T07:34:32.810Z,18.34
2022-08-07T07:37:14.408Z,18.57
2022-08-07T07:39:54.278Z,18.20
2022-08-07T07:42:29.979Z,18.03
2022-08-07T07:45:01.861Z,17.75
2022-08-07T07:47:30.002Z,18.39
2022-08-07T07:50:34.440Z,18.81
2022-08-07T07:53:00.702Z,19.01
2022-08-07T07:55:37.694Z,18.69
2022-08-07T07:58:14.210Z,19.06
2022-08-07T08:00:49.715Z,19.27
2022-08-07T08:04:06.152Z,19.21
2022-08-07T08:06:11.582Z,19.10
2022-08-07T08:08:41.976Z,19.05
2022-08-07T08:11:16.508Z,19.14
2022-08-07T08:13:54.115Z,19.26
2022-08-07T08:16:26.511Z,19.47
2022-08-07T08:18:57.933Z,19.88
2022-08-07T08:21:25.616Z,20.02
2022-08-07T08:24:18.618Z,20.10
2022-08-07T08:27:09.387Z,20.29
2022-08-07T08:29:54.289Z,20.08
2022-08-07T08:32:25.753Z,20.11
2022-08-07T08:35:09.555Z,20.20
2022-08-07T08:37:59.190Z,20.23
2022-08-07T08:40:30.630Z,20.48
2022-08-07T08:43:32.098Z,20.41
2022-08-07T08:46:32.031Z,20.90
2022-08-07T08:49:06.874Z,20.99
2022-08-07T08:51:49.929Z,21.12
2022-08-07T08:54:44.984Z,21.15
2022-08-07T08:57:27.041Z,21.20
2022-08-07T09:00:02.090Z,21.31
2022-08-07T09:02:36.554Z,21.33
2022-08-07T09:05:31.940Z,21.52
2022-08-07T09:08:42.307Z,21.51
2022-08-07T09:11:54.588Z,21.41
2022-08-07T09:16:25.381Z,21.35
2022-08-07T09:18:05.972Z,21.65
2022-08-07T09:21:00.842Z,21.71
2022-08-07T09:24:31.343Z,21.64
2022-08-07T09:26:32.306Z,21.28
2022-08-07T09:30:00.584Z,21.44
2022-08-07T09:32:31.107Z,20.67
2022-08-07T09:36:05.384Z,21.52
2022-08-07T09:38:05.173Z,21.12
2022-08-07T09:41:11.022Z,20.87
2022-08-07T09:44:20.043Z,21.38
2022-08-07T09:47:55.246Z,21.57
2022-08-07T09:50:19.259Z,21.87
2022-08-07T09:52:52.095Z,21.88
2022-08-07T09:56:03.933Z,22.04
2022-08-07T09:58:56.171Z,22.25
2022-08-07T10:02:02.819Z,22.29
2022-08-07T10:04:47.673Z,22.45
2022-08-07T10:07:55.663Z,22.36
2022-08-07T10:13:29.757Z,21.64
2022-08-07T10:16:53.284Z,21.91
2022-08-07T10:19:37.773Z,21.98
2022-08-07T10:22:33.798Z,22.42
2022-08-07T10:25:42.995Z,22.81
2022-08-07T10:28:22.339Z,22.74
2022-08-07T10:31:31.514Z,22.99
2022-08-07T10:34:46.847Z,23.20
2022-08-07T10:38:00.684Z,22.87
2022-08-07T10:40:33.222Z,22.78
2022-08-07T10:43:14.023Z,22.91
2022-08-07T10:45:58.295Z,23.28
2022-08-07T10:48:35.928Z,23.19
2022-08-07T10:51:16.910Z,23.42
2022-08-07T10:54:18.380Z,23.59
2022-08-07T10:57:34.256Z,23.70
2022-08-07T11:00:04.199Z,23.28
2022-08-07T11:02:57.323Z,22.56
2022-08-07T11:05:35.652Z,21.92
2022-08-07T11:08:39.026Z,21.37
2022-08-07T11:11:21.079Z,21.54
2022-08-07T11:14:44.240Z,22.12
2022-08-07T11:17:13.051Z,22.78
2022-08-07T11:19:59.793Z,23.08
2022-08-07T11:23:01.613Z,22.95
2022-08-07T11:25:36.079Z,22.98
2022-08-07T11:28:21.093Z,23.53
2022-08-07T11:31:12.889Z,22.52
2022-08-07T11:33:59.474Z,22.12
2022-08-07T11:36:35.683Z,23.18
2022-08-07T11:39:59.024Z,23.77
2022-08-07T11:43:00.865Z,23.17
2022-08-07T11:45:50.228Z,23.76
2022-08-07T11:49:51.130Z,23.93
2022-08-07T11:52:15.630Z,24.17
2022-08-07T11:55:02.857Z,24.21
2022-08-07T11:58:01.744Z,24.36
2022-08-07T12:01:02.126Z,24.16
2022-08-07T12:03:53.017Z,24.66
2022-08-07T12:06:40.334Z,24.92
2022-08-07T12:09:42.626Z,25.10
2022-08-07T12:12:18.220Z,25.11
2022-08-07T12:15:00.453Z,24.79
2022-08-07T12:17:59.217Z,24.05
2022-08-07T12:20:32.985Z,23.69
2022-08-07T12:24:04.860Z,24.13
2022-08-07T12:26:30.963Z,23.77
2022-08-07T12:29:41.057Z,23.74
2022-08-07T12:32:19.474Z,23.82
2022-08-07T12:34:49.177Z,24.08
2022-08-07T12:37:23.645Z,24.06
2022-08-07T12:39:57.635Z,24.09
2022-08-07T12:42:31.960Z,23.83
2022-08-07T12:45:00.575Z,23.89
2022-08-07T12:47:41.871Z,23.33
2022-08-07T12:50:39.315Z,23.72
2022-08-07T12:54:03.290Z,24.01
2022-08-07T12:56:36.838Z,23.90
2022-08-07T12:59:08.318Z,24.00
2022-08-07T13:02:09.715Z,23.39
2022-08-07T13:05:14.919Z,23.19
2022-08-07T13:08:19.123Z,22.89
2022-08-07T13:10:57.795Z,22.83
2022-08-07T13:13:48.550Z,23.27
2022-08-07T13:16:26.932Z,23.86
2022-08-07T13:19:18.359Z,24.32
2022-08-07T13:22:38.998Z,24.55
2022-08-07T13:25:10.315Z,24.63
2022-08-07T13:28:11.078Z,24.42
2022-08-07T13:30:48.736Z,24.56
2022-08-07T13:34:32.179Z,24.11
2022-08-07T13:36:20.954Z,24.03
2022-08-07T13:39:12.989Z,23.97
2022-08-07T13:41:55.006Z,23.94
2022-08-07T13:44:26.208Z,24.25
2022-08-07T13:46:55.771Z,23.91
2022-08-07T13:50:33.011Z,23.74
2022-08-07T13:52:30.535Z,23.94
2022-08-07T13:55:00.606Z,23.93
2022-08-07T13:57:32.200Z,24.11
2022-08-07T14:00:06.117Z,24.21
2022-08-07T14:02:39.535Z,23.94
2022-08-07T14:05:22.064Z,23.83
2022-08-07T14:08:00.667Z,23.78
2022-08-07T14:10:42.460Z,23.98
2022-08-07T14:13:16.115Z,23.99
2022-08-07T14:15:50.475Z,23.85
2022-08-07T14:18:30.456Z,24.07
2022-08-07T14:21:20.717Z,24.24
2022-08-07T14:24:01.963Z,23.88
2022-08-07T14:26:37.627Z,23.66
2022-08-07T14:30:07.229Z,23.77
2022-08-07T14:32:00.275Z,23.98
2022-08-07T14:34:30.833Z,24.10
2022-08-07T14:37:03.127Z,24.33
2022-08-07T14:40:16.418Z,24.25
2022-08-07T14:42:31.468Z,24.28
2022-08-07T14:45:22.405Z,24.28
2022-08-07T14:47:53.033Z,24.50
2022-08-07T14:50:27.891Z,24.54
2022-08-07T14:52:55.958Z,24.89
2022-08-07T14:55:35.578Z,25.09
2022-08-07T14:58:31.366Z,24.95
2022-08-07T15:01:00.104Z,24.63
2022-08-07T15:03:52.671Z,24.71
2022-08-07T15:06:25.260Z,24.92
2022-08-07T15:08:54.884Z,25.04
2022-08-07T15:11:51.090Z,24.89
2022-08-07T15:14:17.135Z,24.77
2022-08-07T15:16:55.073Z,24.58
2022-08-07T15:20:31.082Z,24.93
2022-08-07T15:22:33.456Z,24.61
2022-08-07T15:28:30.920Z,24.93
2022-08-07T15:37:03.010Z,25.29
2022-08-07T15:39:05.507Z,25.09
2022-08-07T15:42:44.206Z,25.11
2022-08-07T15:48:01.452Z,25.04
2022-08-07T15:53:51.597Z,23.50
2022-08-07T15:56:15.984Z,23.70
2022-08-07T15:58:52.265Z,23.29
2022-08-07T16:01:38.482Z,23.29
2022-08-07T16:04:14.560Z,23.20
2022-08-07T16:06:53.252Z,22.96
2022-08-07T16:09:34.918Z,22.84
2022-08-07T16:12:39.154Z,22.69
2022-08-07T16:15:51.640Z,23.07
2022-08-07T16:18:49.929Z,23.32
2022-08-07T16:22:06.620Z,22.93
2022-08-07T16:24:56.676Z,22.50
2022-08-07T16:27:46.956Z,22.36
2022-08-07T16:30:31.831Z,22.42
2022-08-07T16:34:02.579Z,22.99
2022-08-07T16:36:31.484Z,23.17
2022-08-07T16:39:20.859Z,23.19
2022-08-07T16:42:22.376Z,22.95
2022-08-07T16:45:24.581Z,22.93
2022-08-07T16:48:07.962Z,23.13
2022-08-07T16:51:21.591Z,23.18
2022-08-07T16:54:06.025Z,23.17
2022-08-07T16:58:02.232Z,23.11
2022-08-07T17:00:29.277Z,23.24
2022-08-07T17:03:59.815Z,23.39
2022-08-07T17:06:45.800Z,23.39
2022-08-07T17:10:06.042Z,23.38
2022-08-07T17:12:34.510Z,22.96
2022-08-07T17:15:16.344Z,22.61
2022-08-07T17:17:47.514Z,22.63
2022-08-07T17:20:35.088Z,22.60
2022-08-07T17:23:23.133Z,22.68
2022-08-07T17:26:23.928Z,22.67
2022-08-07T17:30:12.421Z,22.60
2022-08-07T17:32:29.996Z,22.47
2022-08-07T17:35:50.246Z,22.23
2022-08-07T17:38:09.307Z,22.31
2022-08-07T17:40:56.362Z,22.26
2022-08-07T17:44:01.733Z,22.24
2022-08-07T17:46:40.273Z,22.07
2022-08-07T17:49:23.868Z,22.05
2022-08-07T17:52:00.484Z,22.00
2022-08-07T17:54:54.053Z,21.94
2022-08-07T17:57:56.345Z,21.89
2022-08-07T18:00:33.293Z,21.89
2022-08-07T18:03:19.360Z,21.66
2022-08-07T18:06:02.859Z,21.61
2022-08-07T18:08:35.893Z,21.66
2022-08-07T18:12:06.836Z,21.60
2022-08-07T18:14:44.937Z,21.44
2022-08-07T18:18:36.656Z,21.38
2022-08-07T18:21:38.364Z,21.31
2022-08-07T18:24:06.947Z,21.19
2022-08-07T18:27:08.537Z,21.14
2022-08-07T18:30:05.929Z,21.09
2022-08-07T18:32:54.504Z,20.98
2022-08-07T18:36:03.018Z,20.87
2022-08-07T18:38:56.013Z,20.85
2022-08-07T18:41:47.918Z,20.81
2022-08-07T18:44:36.453Z,20.71
2022-08-07T18:47:44.467Z,20.60
2022-08-07T18:50:49.131Z,20.57
2022-08-07T18:53:37.039Z,20.46
2022-08-07T18:56:30.739Z,20.36
2022-08-07T18:59:48.085Z,20.40
2022-08-07T19:02:32.280Z,20.21
2022-08-07T19:05:15.919Z,20.09
2022-08-07T19:07:59.178Z,20.09
2022-08-07T19:10:49.524Z,20.01
2022-08-07T19:13:26.579Z,19.95
2022-08-07T19:16:43.701Z,19.80
2022-08-07T19:19:50.318Z,19.74
2022-08-07T19:22:39.621Z,19.69
2022-08-07T19:26:23.199Z,19.68
2022-08-07T19:28:30.950Z,19.47
2022-08-07T19:31:39.545Z,19.55
2022-08-07T19:34:08.163Z,19.15
2022-08-07T19:36:40.742Z,19.07
2022-08-07T19:39:10.198Z,19.16
2022-08-07T19:42:08.529Z,19.03
2022-08-07T19:44:36.322Z,19.01
2022-08-07T19:47:08.270Z,18.79
2022-08-07T19:49:57.346Z,18.61
2022-08-07T19:52:27.704Z,18.43
2022-08-07T19:54:56.113Z,18.41
2022-08-07T19:58:01.029Z,18.46
2022-08-07T20:00:29.077Z,18.37
2022-08-07T20:03:01.695Z,18.39
2022-08-07T20:06:00.483Z,18.37
2022-08-07T20:08:28.042Z,18.32
2022-08-07T20:11:01.811Z,18.45
2022-08-07T20:13:41.765Z,18.22
2022-08-07T20:16:15.723Z,17.98
2022-08-07T20:19:02.259Z,17.85
2022-08-07T20:21:42.008Z,17.96
2022-08-07T20:24:21.589Z,18.20
2022-08-07T20:26:50.071Z,18.25
2022-08-07T20:29:48.672Z,18.04
2022-08-07T20:32:11.528Z,17.75
2022-08-07T20:34:51.643Z,17.85
2022-08-07T20:37:37.148Z,17.93
2022-08-07T20:40:32.787Z,17.88
2022-08-07T20:43:02.300Z,17.66
2022-08-07T20:46:24.694Z,17.67
2022-08-07T20:48:28.771Z,17.67
2022-08-07T20:51:01.261Z,17.75
2022-08-07T20:54:04.203Z,17.72
2022-08-07T20:56:16.491Z,17.78
2022-08-07T20:58:50.405Z,17.76
2022-08-07T21:01:20.873Z,17.48
2022-08-07T21:04:19.674Z,17.34
2022-08-07T21:06:46.606Z,17.37
2022-08-07T21:09:24.233Z,17.31
2022-08-07T21:11:52.301Z,17.31
2022-08-07T21:14:32.061Z,17.16
2022-08-07T21:18:03.202Z,17.12
2022-08-07T21:20:00.860Z,17.03
2022-08-07T21:22:38.894Z,16.90
2022-08-07T21:25:21.929Z,16.75
2022-08-07T21:28:02.191Z,16.74
2022-08-07T21:30:50.184Z,16.65
2022-08-07T21:33:22.567Z,16.61
2022-08-07T21:36:05.241Z,16.49
2022-08-07T21:38:44.215Z,16.36
2022-08-07T21:41:59.811Z,16.14
2022-08-07T21:44:53.795Z,15.92
2022-08-07T21:48:26.881Z,15.77
2022-08-07T21:51:07.303Z,15.70
2022-08-07T21:54:04.195Z,15.54
2022-08-07T21:56:59.843Z,15.40
2022-08-07T21:59:36.214Z,15.34
2022-08-07T22:02:29.650Z,15.12
2022-08-07T22:05:00.063Z,14.99
2022-08-07T22:07:31.754Z,14.90
2022-08-07T22:10:20.748Z,14.76
2022-08-07T22:12:55.275Z,14.71
2022-08-07T22:16:40.096Z,14.67
2022-08-07T22:18:55.683Z,14.48
2022-08-07T22:22:04.732Z,14.49
2022-08-07T22:24:32.991Z,14.37
2022-08-07T22:27:33.885Z,14.32
2022-08-07T22:30:16.499Z,14.27
2022-08-07T22:32:57.713Z,14.15
2022-08-07T22:35:39.853Z,14.06
2022-08-07T22:38:48.638Z,13.98
2022-08-07T22:42:03.485Z,13.92
2022-08-07T22:44:26.809Z,13.87
2022-08-07T22:47:24.635Z,13.69
2022-08-07T22:50:06.800Z,13.63
2022-08-07T22:53:07.365Z,13.56
2022-08-07T22:56:03.084Z,13.59
2022-08-07T22:58:48.737Z,13.61
2022-08-07T23:01:42.182Z,13.54
2022-08-07T23:06:14.650Z,13.43
2022-08-07T23:08:23.896Z,13.30
2022-08-07T23:11:17.889Z,13.23
2022-08-07T23:14:16.541Z,13.26
2022-08-07T23:16:55.015Z,13.21
2022-08-07T23:19:51.373Z,13.17
2022-08-07T23:22:36.992Z,13.18
2022-08-07T23:25:38.934Z,13.13
2022-08-07T23:28:29.419Z,13.12
2022-08-07T23:32:49.067Z,13.07
2022-08-07T23:34:21.984Z,13.02
2022-08-07T23:38:00.414Z,12.89
2022-08-07T23:40:39.703Z,12.97
2022-08-07T23:43:16.812Z,13.00
2022-08-07T23:46:03.302Z,12.96
2022-08-07T23:49:00.875Z,12.82
2022-08-07T23:53:00.970Z,12.81
2022-08-07T23:55:02.026Z,12.77
2022-08-07T23:57:40.725Z,12.76
